Aleppo, Pennsylvania
Current Conditions -  °F | °C
As of 4:35 AM on Wednesday 22 Oct 2014 (Local Time) from KAFJ Reporting Station
Overcast Overcast  
Wind Chill: 42°   Ceiling: 1000
Heat Index: 46°   Visibility: 7mi
Dew Point: 45°   Wind: 8mph
Humidity: 93%   Direction: 350°N
Pressure: 30.06"   Gusts: NA
Location:  39.82°N, 80.45°W
Report Text: KAFJ 220835Z AUTO 35007KT 7SM BKN010 OVC016 08/07 A3006 RMK AO1 P0001
Loading
Personal Weather Stations






























Interactive Weather Map
Tropical Storm Tracking
New forecast layout! Learn more

10-Day Weather Forecast

Advertisements
Track Severe Weather on mobile